Time,TemperatureF,DewpointF,PressureIn,WindDirection,WindDirectionDegrees,WindSpeedMPH,WindSpeedGustMPH,Humidity,HourlyPrecipIn,Conditions,Clouds,dailyrainin,SoftwareType,DateUTC
2013-11-01 00:05:00,61.9,56.0,29.59,West,276,4.0,5.0,81,0.00,,,0.00,Wunderground v.1.15,2013-11-01 04:05:00,
2013-11-01 00:10:00,62.0,56.1,29.59,WSW,243,3.0,3.0,81,0.00,,,0.00,Wunderground v.1.15,2013-11-01 04:10:00,
2013-11-01 00:15:00,62.0,56.1,29.60,SW,218,3.0,3.0,81,0.00,,,0.00,Wunderground v.1.15,2013-11-01 04:15:00,
2013-11-01 00:20:00,62.1,55.9,29.59,West,271,4.0,4.0,80,0.00,,,0.00,Wunderground v.1.15,2013-11-01 04:20:00,
2013-11-01 00:30:00,62.5,56.2,29.57,SW,221,4.0,6.0,80,0.00,,,0.00,Wunderground v.1.15,2013-11-01 04:30:00,
2013-11-01 00:40:00,62.7,56.4,29.56,SW,233,5.0,8.0,80,0.00,,,0.00,Wunderground v.1.15,2013-11-01 04:40:00,
2013-11-01 00:50:00,63.2,56.6,29.56,WSW,238,6.0,11.0,79,0.00,,,0.00,Wunderground v.1.15,2013-11-01 04:50:00,
2013-11-01 00:55:00,63.4,56.8,29.55,SW,228,7.0,11.0,79,0.00,,,0.00,Wunderground v.1.15,2013-11-01 04:55:00,
2013-11-01 01:05:00,63.6,57.0,29.54,WNW,295,6.0,6.0,79,0.00,,,0.00,Wunderground v.1.15,2013-11-01 05:05:00,
2013-11-01 01:10:00,63.5,56.9,29.54,West,262,6.0,11.0,79,0.00,,,0.00,Wunderground v.1.15,2013-11-01 05:10:00,
2013-11-01 01:15:00,63.7,57.1,29.54,SSW,210,6.0,17.0,79,0.00,,,0.00,Wunderground v.1.15,2013-11-01 05:15:00,
2013-11-01 01:25:00,64.0,57.4,29.53,SW,231,7.0,7.0,79,0.00,,,0.00,Wunderground v.1.15,2013-11-01 05:25:00,
2013-11-01 01:35:00,64.1,57.1,29.53,SW,222,6.0,7.0,78,0.00,,,0.00,Wunderground v.1.15,2013-11-01 05:35:00,
2013-11-01 01:40:00,64.3,57.6,29.53,SW,217,6.0,9.0,79,0.00,,,0.00,Wunderground v.1.15,2013-11-01 05:40:00,
2013-11-01 01:50:00,64.6,57.6,29.53,West,265,7.0,7.0,78,0.00,,,0.00,Wunderground v.1.15,2013-11-01 05:50:00,
2013-11-01 01:55:00,64.7,57.7,29.52,SSW,210,7.0,7.0,78,0.00,,,0.00,Wunderground v.1.15,2013-11-01 05:55:00,
2013-11-01 02:05:00,64.7,57.3,29.51,SSW,197,6.0,6.0,77,0.00,,,0.00,Wunderground v.1.15,2013-11-01 06:05:00,
2013-11-01 02:15:00,65.0,57.6,29.50,SW,232,6.0,9.0,77,0.00,,,0.00,Wunderground v.1.15,2013-11-01 06:15:00,
2013-11-01 02:20:00,65.1,57.7,29.49,WSW,238,6.0,6.0,77,0.00,,,0.00,Wunderground v.1.15,2013-11-01 06:20:00,
2013-11-01 02:30:00,65.1,57.7,29.50,West,267,5.0,5.0,77,0.00,,,0.00,Wunderground v.1.15,2013-11-01 06:30:00,
2013-11-01 02:40:00,65.1,57.7,29.49,SW,231,5.0,5.0,77,0.00,,,0.00,Wunderground v.1.15,2013-11-01 06:40:00,
2013-11-01 02:50:00,65.4,58.0,29.48,WSW,237,6.0,6.0,77,0.00,,,0.00,Wunderground v.1.15,2013-11-01 06:50:00,
2013-11-01 03:00:00,65.8,58.4,29.48,SW,226,7.0,7.0,77,0.00,,,0.00,Wunderground v.1.15,2013-11-01 07:00:00,
2013-11-01 03:05:00,65.9,58.1,29.47,SSW,213,6.0,7.0,76,0.00,,,0.00,Wunderground v.1.15,2013-11-01 07:05:00,
2013-11-01 03:15:00,66.1,58.3,29.46,SW,235,6.0,8.0,76,0.00,,,0.00,Wunderground v.1.15,2013-11-01 07:15:00,
2013-11-01 03:25:00,66.1,58.3,29.46,SW,228,6.0,6.0,76,0.00,,,0.00,Wunderground v.1.15,2013-11-01 07:25:00,
2013-11-01 03:35:00,66.2,58.4,29.46,WSW,241,6.0,7.0,76,0.00,,,0.00,Wunderground v.1.15,2013-11-01 07:35:00,
2013-11-01 03:45:00,66.6,58.8,29.45,SW,216,8.0,10.0,76,0.00,,,0.00,Wunderground v.1.15,2013-11-01 07:45:00,
2013-11-01 03:55:00,66.9,58.7,29.45,WSW,242,8.0,8.0,75,0.00,,,0.00,Wunderground v.1.15,2013-11-01 07:55:00,
2013-11-01 04:05:00,66.8,59.4,29.44,SSW,208,7.0,10.0,77,0.00,,,0.00,Wunderground v.1.15,2013-11-01 08:05:00,
2013-11-01 04:15:00,66.3,58.9,29.44,WSW,251,7.0,9.0,77,0.00,,,0.00,Wunderground v.1.15,2013-11-01 08:15:00,
2013-11-01 04:25:00,66.3,58.9,29.44,SW,233,7.0,7.0,77,0.00,,,0.00,Wunderground v.1.15,2013-11-01 08:25:00,
2013-11-01 04:30:00,66.4,59.0,29.43,West,275,6.0,6.0,77,0.00,,,0.00,Wunderground v.1.15,2013-11-01 08:30:00,
2013-11-01 04:40:00,66.1,59.0,29.43,South,187,5.0,5.0,78,0.00,,,0.00,Wunderground v.1.15,2013-11-01 08:40:00,
2013-11-01 04:50:00,66.1,59.0,29.42,SW,228,6.0,11.0,78,0.00,,,0.00,Wunderground v.1.15,2013-11-01 08:50:00,
2013-11-01 05:00:00,66.3,59.2,29.45,SW,224,5.0,10.0,78,0.00,,,0.00,Wunderground v.1.15,2013-11-01 09:00:00,
2013-11-01 05:05:00,64.8,58.5,29.49,WNW,285,8.0,20.0,80,0.00,,,0.01,Wunderground v.1.15,2013-11-01 09:05:00,
2013-11-01 05:15:00,61.7,55.8,29.50,SW,224,13.0,14.0,81,0.00,,,0.01,Wunderground v.1.15,2013-11-01 09:15:00,
2013-11-01 05:20:00,61.0,55.5,29.50,SSW,206,12.0,12.0,82,0.00,,,0.01,Wunderground v.1.15,2013-11-01 09:20:00,
2013-11-01 05:30:00,60.2,55.0,29.49,WSW,239,12.0,12.0,83,0.00,,,0.01,Wunderground v.1.15,2013-11-01 09:30:00,
2013-11-01 05:40:00,59.3,54.8,29.49,WSW,245,9.0,10.0,85,0.00,,,0.01,Wunderground v.1.15,2013-11-01 09:40:00,
2013-11-01 05:50:00,59.3,54.5,29.49,WNW,299,11.0,22.0,84,0.00,,,0.01,Wunderground v.1.15,2013-11-01 09:50:00,
2013-11-01 06:00:00,59.2,54.0,29.49,West,265,14.0,24.0,83,0.00,,,0.01,Wunderground v.1.15,2013-11-01 10:00:00,
2013-11-01 06:05:00,59.2,54.0,29.49,SSW,207,13.0,24.0,83,0.00,,,0.01,Wunderground v.1.15,2013-11-01 10:05:00,
2013-11-01 06:15:00,59.4,53.9,29.49,West,259,15.0,15.0,82,0.00,,,0.01,Wunderground v.1.15,2013-11-01 10:15:00,
2013-11-01 06:20:00,59.3,53.5,29.50,WSW,253,15.0,15.0,81,0.00,,,0.01,Wunderground v.1.15,2013-11-01 10:20:00,
2013-11-01 06:30:00,59.6,53.4,29.49,WSW,246,16.0,16.0,80,0.00,,,0.01,Wunderground v.1.15,2013-11-01 10:30:00,
2013-11-01 06:40:00,59.6,53.4,29.49,SSW,211,16.0,16.0,80,0.00,,,0.01,Wunderground v.1.15,2013-11-01 10:40:00,
2013-11-01 06:50:00,59.9,53.7,29.50,WNW,292,18.0,18.0,80,0.00,,,0.01,Wunderground v.1.15,2013-11-01 10:50:00,
2013-11-01 07:00:00,59.8,53.3,29.50,West,259,18.0,18.0,79,0.00,,,0.01,Wunderground v.1.15,2013-11-01 11:00:00,
2013-11-01 07:05:00,60.0,53.5,29.49,WSW,255,17.0,21.0,79,0.00,,,0.01,Wunderground v.1.15,2013-11-01 11:05:00,
2013-11-01 07:15:00,60.0,53.5,29.50,WSW,253,15.0,20.0,79,0.00,,,0.01,Wunderground v.1.15,2013-11-01 11:15:00,
2013-11-01 07:25:00,60.3,53.1,29.51,SW,235,17.0,17.0,77,0.00,,,0.01,Wunderground v.1.15,2013-11-01 11:25:00,
2013-11-01 07:30:00,60.2,53.3,29.51,WSW,256,18.0,18.0,78,0.00,,,0.01,Wunderground v.1.15,2013-11-01 11:30:00,
2013-11-01 07:40:00,58.7,52.9,29.50,SW,215,13.0,13.0,81,0.00,,,0.01,Wunderground v.1.15,2013-11-01 11:40:00,
2013-11-01 07:50:00,58.6,52.8,29.52,West,262,13.0,13.0,81,0.00,,,0.01,Wunderground v.1.15,2013-11-01 11:50:00,
2013-11-01 07:55:00,58.7,52.5,29.52,SW,220,12.0,18.0,80,0.00,,,0.01,Wunderground v.1.15,2013-11-01 11:55:00,
2013-11-01 08:05:00,58.9,52.7,29.54,WSW,256,11.0,11.0,80,0.00,,,0.01,Wunderground v.1.15,2013-11-01 12:05:00,
2013-11-01 08:15:00,59.0,52.5,29.55,SW,231,7.0,8.0,79,0.00,,,0.01,Wunderground v.1.15,2013-11-01 12:15:00,
2013-11-01 08:25:00,59.0,52.8,29.58,SW,233,7.0,11.0,80,0.00,,,0.01,Wunderground v.1.15,2013-11-01 12:25:00,
2013-11-01 08:35:00,59.3,52.8,29.57,SW,233,7.0,9.0,79,0.00,,,0.01,Wunderground v.1.15,2013-11-01 12:35:00,
2013-11-01 08:45:00,59.4,52.9,29.57,WSW,244,6.0,8.0,79,0.00,,,0.01,Wunderground v.1.15,2013-11-01 12:45:00,
2013-11-01 08:50:00,59.4,52.9,29.58,South,189,5.0,5.0,79,0.00,,,0.01,Wunderground v.1.15,2013-11-01 12:50:00,
2013-11-01 09:00:00,59.4,52.9,29.58,SW,224,7.0,7.0,79,0.00,,,0.01,Wunderground v.1.15,2013-11-01 13:00:00,
2013-11-01 09:05:00,59.3,52.8,29.58,WSW,241,5.0,7.0,79,0.00,,,0.01,Wunderground v.1.15,2013-11-01 13:05:00,
2013-11-01 09:15:00,59.0,52.8,29.58,SW,219,4.0,7.0,80,0.00,,,0.01,Wunderground v.1.15,2013-11-01 13:15:00,
2013-11-01 09:20:00,59.0,52.5,29.58,WSW,250,6.0,6.0,79,0.00,,,0.01,Wunderground v.1.15,2013-11-01 13:20:00,
2013-11-01 09:30:00,59.3,52.1,29.58,WSW,239,6.0,6.0,77,0.00,,,0.01,Wunderground v.1.15,2013-11-01 13:30:00,
2013-11-01 09:40:00,59.1,52.2,29.58,WNW,290,5.0,13.0,78,0.00,,,0.01,Wunderground v.1.15,2013-11-01 13:40:00,
2013-11-01 09:50:00,60.2,53.0,29.58,SSW,200,6.0,6.0,77,0.00,,,0.01,Wunderground v.1.15,2013-11-01 13:50:00,
2013-11-01 10:00:00,61.2,52.1,29.59,WSW,239,8.0,8.0,72,0.00,,,0.01,Wunderground v.1.15,2013-11-01 14:00:00,
2013-11-01 10:05:00,61.6,51.7,29.58,West,279,9.0,9.0,70,0.00,,,0.01,Wunderground v.1.15,2013-11-01 14:05:00,
2013-11-01 10:15:00,61.9,51.6,29.59,WSW,237,9.0,10.0,69,0.00,,,0.01,Wunderground v.1.15,2013-11-01 14:15:00,
2013-11-01 10:25:00,62.2,51.9,29.59,WSW,247,9.0,12.0,69,0.00,,,0.01,Wunderground v.1.15,2013-11-01 14:25:00,
2013-11-01 10:35:00,62.8,50.9,29.59,West,260,9.0,10.0,65,0.00,,,0.01,Wunderground v.1.15,2013-11-01 14:35:00,
2013-11-01 10:45:00,63.1,50.3,29.59,SSW,209,10.0,12.0,63,0.00,,,0.01,Wunderground v.1.15,2013-11-01 14:45:00,
2013-11-01 10:55:00,63.8,51.0,29.60,SW,226,11.0,17.0,63,0.00,,,0.01,Wunderground v.1.15,2013-11-01 14:55:00,
2013-11-01 11:05:00,65.1,50.9,29.60,SW,218,8.0,10.0,60,0.00,,,0.01,Wunderground v.1.15,2013-11-01 15:05:00,
2013-11-01 11:15:00,65.8,50.1,29.59,WSW,257,8.0,8.0,57,0.00,,,0.01,Wunderground v.1.15,2013-11-01 15:15:00,
2013-11-01 11:25:00,66.7,51.9,29.60,West,278,6.0,7.0,59,0.00,,,0.01,Wunderground v.1.15,2013-11-01 15:25:00,
2013-11-01 11:45:00,66.4,48.2,29.60,SW,220,9.0,15.0,52,0.00,,,0.01,Wunderground v.1.15,2013-11-01 15:45:00,
2013-11-01 11:50:00,66.3,48.7,29.60,SW,236,9.0,11.0,53,0.00,,,0.01,Wunderground v.1.15,2013-11-01 15:50:00,
2013-11-01 12:05:00,65.7,49.1,29.60,SW,219,9.0,10.0,55,0.00,,,0.01,Wunderground v.1.15,2013-11-01 16:05:00,
2013-11-01 12:15:00,66.1,49.5,29.60,SW,230,10.0,22.0,55,0.00,,,0.01,Wunderground v.1.15,2013-11-01 16:15:00,
2013-11-01 12:25:00,66.7,48.0,29.60,SW,216,10.0,14.0,51,0.00,,,0.01,Wunderground v.1.15,2013-11-01 16:25:00,
2013-11-01 12:40:00,67.5,47.7,29.60,West,272,6.0,14.0,49,0.00,,,0.01,Wunderground v.1.15,2013-11-01 16:40:00,
2013-11-01 12:45:00,67.6,47.2,29.59,SSW,208,8.0,14.0,48,0.00,,,0.01,Wunderground v.1.15,2013-11-01 16:45:00,
2013-11-01 13:00:00,67.5,47.7,29.60,SW,216,6.0,7.0,49,0.00,,,0.01,Wunderground v.1.15,2013-11-01 17:00:00,
2013-11-01 13:15:00,68.1,48.8,29.59,SW,226,6.0,11.0,50,0.00,,,0.01,Wunderground v.1.15,2013-11-01 17:15:00,
2013-11-01 13:20:00,67.8,47.4,29.58,SW,233,6.0,9.0,48,0.00,,,0.01,Wunderground v.1.15,2013-11-01 17:20:00,
2013-11-01 13:25:00,67.9,47.5,29.59,SW,232,8.0,9.0,48,0.00,,,0.01,Wunderground v.1.15,2013-11-01 17:25:00,
2013-11-01 13:40:00,68.0,47.0,29.58,SSW,212,8.0,9.0,47,0.00,,,0.01,Wunderground v.1.15,2013-11-01 17:40:00,
2013-11-01 13:50:00,68.0,47.0,29.58,ESE,120,5.0,5.0,47,0.00,,,0.01,Wunderground v.1.15,2013-11-01 17:50:00,
2013-11-01 14:10:00,68.1,48.2,29.58,SW,224,7.0,9.0,49,0.00,,,0.01,Wunderground v.1.15,2013-11-01 18:10:00,
2013-11-01 14:20:00,69.3,49.9,29.58,WSW,245,5.0,10.0,50,0.00,,,0.01,Wunderground v.1.15,2013-11-01 18:20:00,
2013-11-01 14:30:00,69.2,48.1,29.57,SW,233,6.0,6.0,47,0.00,,,0.01,Wunderground v.1.15,2013-11-01 18:30:00,
2013-11-01 14:35:00,69.0,49.0,29.57,SSW,201,6.0,6.0,49,0.00,,,0.01,Wunderground v.1.15,2013-11-01 18:35:00,
2013-11-01 14:50:00,68.8,47.2,29.57,SW,222,8.0,8.0,46,0.00,,,0.01,Wunderground v.1.15,2013-11-01 18:50:00,
2013-11-01 14:55:00,69.0,47.9,29.57,SW,218,7.0,8.0,47,0.00,,,0.01,Wunderground v.1.15,2013-11-01 18:55:00,
2013-11-01 15:05:00,68.9,47.8,29.57,SSW,195,6.0,7.0,47,0.00,,,0.01,Wunderground v.1.15,2013-11-01 19:05:00,
2013-11-01 15:15:00,69.3,48.8,29.57,WSW,251,6.0,6.0,48,0.00,,,0.01,Wunderground v.1.15,2013-11-01 19:15:00,
2013-11-01 15:25:00,69.4,46.5,29.57,SSW,205,6.0,6.0,44,0.00,,,0.01,Wunderground v.1.15,2013-11-01 19:25:00,
2013-11-01 15:35:00,70.6,47.0,29.57,SE,144,4.0,5.0,43,0.00,,,0.01,Wunderground v.1.15,2013-11-01 19:35:00,
2013-11-01 15:45:00,70.7,47.1,29.57,WSW,248,4.0,5.0,43,0.00,,,0.01,Wunderground v.1.15,2013-11-01 19:45:00,
2013-11-01 15:50:00,70.9,47.9,29.57,North,9,4.0,4.0,44,0.00,,,0.01,Wunderground v.1.15,2013-11-01 19:50:00,
2013-11-01 16:05:00,70.7,46.5,29.57,WSW,241,6.0,6.0,42,0.00,,,0.01,Wunderground v.1.15,2013-11-01 20:05:00,
2013-11-01 16:15:00,71.0,48.0,29.57,SW,216,5.0,6.0,44,0.00,,,0.01,Wunderground v.1.15,2013-11-01 20:15:00,
2013-11-01 16:20:00,71.3,47.0,29.57,SW,236,6.0,6.0,42,0.00,,,0.01,Wunderground v.1.15,2013-11-01 20:20:00,
2013-11-01 16:30:00,70.8,46.6,29.57,SW,226,5.0,5.0,42,0.00,,,0.01,Wunderground v.1.15,2013-11-01 20:30:00,
2013-11-01 16:40:00,71.2,47.6,29.58,SSW,201,2.0,4.0,43,0.00,,,0.01,Wunderground v.1.15,2013-11-01 20:40:00,
2013-11-01 16:45:00,71.4,47.7,29.58,WSW,251,3.0,4.0,43,0.00,,,0.01,Wunderground v.1.15,2013-11-01 20:45:00,
2013-11-01 16:55:00,71.4,47.1,29.58,SW,225,3.0,4.0,42,0.00,,,0.01,Wunderground v.1.15,2013-11-01 20:55:00,
2013-11-01 17:05:00,70.6,47.0,29.58,SW,221,3.0,5.0,43,0.00,,,0.01,Wunderground v.1.15,2013-11-01 21:05:00,
2013-11-01 17:20:00,68.5,46.3,29.58,SW,226,4.0,4.0,45,0.00,,,0.01,Wunderground v.1.15,2013-11-01 21:20:00,
2013-11-01 17:25:00,67.7,45.6,29.58,West,264,3.0,4.0,45,0.00,,,0.01,Wunderground v.1.15,2013-11-01 21:25:00,
2013-11-01 17:35:00,66.7,46.4,29.58,WSW,243,2.0,3.0,48,0.00,,,0.01,Wunderground v.1.15,2013-11-01 21:35:00,
2013-11-01 17:45:00,65.3,45.6,29.58,SW,228,4.0,4.0,49,0.00,,,0.01,Wunderground v.1.15,2013-11-01 21:45:00,
2013-11-01 17:55:00,64.4,45.9,29.58,WSW,241,3.0,3.0,51,0.00,,,0.01,Wunderground v.1.15,2013-11-01 21:55:00,
2013-11-01 18:05:00,63.4,46.0,29.58,WNW,288,2.0,2.0,53,0.00,,,0.01,Wunderground v.1.15,2013-11-01 22:05:00,
2013-11-01 18:15:00,62.6,46.7,29.58,WSW,251,1.0,1.0,56,0.00,,,0.01,Wunderground v.1.15,2013-11-01 22:15:00,
2013-11-01 18:20:00,62.1,45.7,29.58,WNW,283,1.0,3.0,55,0.00,,,0.01,Wunderground v.1.15,2013-11-01 22:20:00,
2013-11-01 18:30:00,61.5,46.1,29.58,West,280,1.0,1.0,57,0.00,,,0.01,Wunderground v.1.15,2013-11-01 22:30:00,
2013-11-01 18:40:00,60.5,46.1,29.58,WSW,258,2.0,4.0,59,0.00,,,0.01,Wunderground v.1.15,2013-11-01 22:40:00,
2013-11-01 18:50:00,60.7,44.9,29.59,SSW,206,4.0,4.0,56,0.00,,,0.01,Wunderground v.1.15,2013-11-01 22:50:00,
2013-11-01 19:00:00,61.3,45.0,29.58,WSW,256,6.0,9.0,55,0.00,,,0.01,Wunderground v.1.15,2013-11-01 23:00:00,
2013-11-01 19:05:00,61.9,45.1,29.58,SW,230,6.0,9.0,54,0.00,,,0.01,Wunderground v.1.15,2013-11-01 23:05:00,
2013-11-01 19:15:00,61.9,45.1,29.58,WSW,253,7.0,8.0,54,0.00,,,0.01,Wunderground v.1.15,2013-11-01 23:15:00,
2013-11-01 19:25:00,62.4,45.0,29.59,SSW,205,9.0,9.0,53,0.00,,,0.01,Wunderground v.1.15,2013-11-01 23:25:00,
2013-11-01 19:35:00,61.5,45.2,29.60,SW,220,7.0,10.0,55,0.00,,,0.01,Wunderground v.1.15,2013-11-01 23:35:00,
2013-11-01 19:40:00,61.3,45.0,29.60,WSW,249,7.0,10.0,55,0.00,,,0.01,Wunderground v.1.15,2013-11-01 23:40:00,
2013-11-01 19:50:00,61.6,44.8,29.60,WSW,251,7.0,7.0,54,0.00,,,0.01,Wunderground v.1.15,2013-11-01 23:50:00,
2013-11-01 20:00:00,61.6,44.8,29.61,West,261,6.0,9.0,54,0.00,,,0.01,Wunderground v.1.15,2013-11-02 00:00:00,
2013-11-01 20:05:00,61.9,45.1,29.61,West,264,7.0,9.0,54,0.00,,,0.01,Wunderground v.1.15,2013-11-02 00:05:00,
2013-11-01 20:15:00,61.8,45.0,29.61,WNW,284,7.0,9.0,54,0.00,,,0.01,Wunderground v.1.15,2013-11-02 00:15:00,
2013-11-01 20:25:00,61.4,45.1,29.62,SW,228,6.0,6.0,55,0.00,,,0.01,Wunderground v.1.15,2013-11-02 00:25:00,
2013-11-01 20:30:00,61.2,44.9,29.62,SW,231,5.0,5.0,55,0.00,,,0.01,Wunderground v.1.15,2013-11-02 00:30:00,
2013-11-01 20:40:00,60.8,44.5,29.62,NW,322,5.0,5.0,55,0.00,,,0.01,Wunderground v.1.15,2013-11-02 00:40:00,
2013-11-01 20:50:00,60.2,44.9,29.63,WNW,283,3.0,3.0,57,0.00,,,0.01,Wunderground v.1.15,2013-11-02 00:50:00,
2013-11-01 21:05:00,58.7,44.8,29.63,WSW,241,3.0,3.0,60,0.00,,,0.01,Wunderground v.1.15,2013-11-02 01:05:00,
2013-11-01 21:15:00,58.1,44.7,29.63,WSW,250,3.0,4.0,61,0.00,,,0.01,Wunderground v.1.15,2013-11-02 01:15:00,
2013-11-01 21:35:00,57.9,44.5,29.62,WNW,284,5.0,10.0,61,0.00,,,0.01,Wunderground v.1.15,2013-11-02 01:35:00,
2013-11-01 21:45:00,59.7,44.4,29.61,West,260,9.0,11.0,57,0.00,,,0.01,Wunderground v.1.15,2013-11-02 01:45:00,
2013-11-01 21:50:00,60.0,44.7,29.61,NW,317,9.0,9.0,57,0.00,,,0.01,Wunderground v.1.15,2013-11-02 01:50:00,
2013-11-01 22:05:00,60.0,44.7,29.62,SW,228,8.0,9.0,57,0.00,,,0.01,Wunderground v.1.15,2013-11-02 02:05:00,
2013-11-01 22:15:00,59.7,44.4,29.63,SW,222,8.0,8.0,57,0.00,,,0.01,Wunderground v.1.15,2013-11-02 02:15:00,
2013-11-01 22:25:00,59.4,44.6,29.64,WSW,244,5.0,7.0,58,0.00,,,0.01,Wunderground v.1.15,2013-11-02 02:25:00,
2013-11-01 22:30:00,59.3,44.5,29.64,NNW,330,3.0,3.0,58,0.00,,,0.01,Wunderground v.1.15,2013-11-02 02:30:00,
2013-11-01 22:40:00,58.8,44.5,29.64,SW,223,2.0,3.0,59,0.00,,,0.01,Wunderground v.1.15,2013-11-02 02:40:00,
2013-11-01 22:50:00,58.1,44.3,29.63,SSW,213,2.0,4.0,60,0.00,,,0.01,Wunderground v.1.15,2013-11-02 02:50:00,
2013-11-01 23:15:00,57.5,44.6,29.64,West,260,4.0,6.0,62,0.00,,,0.01,Wunderground v.1.15,2013-11-02 03:15:00,
2013-11-01 23:20:00,57.3,44.4,29.64,SW,216,3.0,3.0,62,0.00,,,0.01,Wunderground v.1.15,2013-11-02 03:20:00,
2013-11-01 23:30:00,57.0,44.5,29.65,West,278,3.0,3.0,63,0.00,,,0.01,Wunderground v.1.15,2013-11-02 03:30:00,
2013-11-01 23:35:00,56.8,44.3,29.64,WNW,298,3.0,4.0,63,0.00,,,0.01,Wunderground v.1.15,2013-11-02 03:35:00,
2013-11-01 23:45:00,56.2,44.2,29.64,WSW,256,3.0,4.0,64,0.00,,,0.01,Wunderground v.1.15,2013-11-02 03:45:00,
2013-11-01 23:50:00,55.9,43.9,29.64,NW,318,2.0,2.0,64,0.00,,,0.01,Wunderground v.1.15,2013-11-02 03:50:00,